Time;durP1;ratioP1;P1;durP2;ratioP2;P2;SDS_P1;SDS_P2;PMS_P1;PMS_P2;Temp;Humidity;BMP_temperature;BMP_pressure;BME280_temperature;BME280_humidity;BME280_pressure;Samples;Min_cycle;Max_cycle;Signal;HPM_P1;HPM_P2
2022/09/10 00:00:08;;;;;;;2.27;0.60;;;;;;;;;;5014079;28;20444;-66
2022/09/10 00:02:35;;;;;;;5.70;0.67;;;;;;;;;;5014214;28;20408;-68
2022/09/10 00:05:01;;;;;;;2.10;1.20;;;;;;;;;;5012877;28;20918;-66
2022/09/10 00:07:27;;;;;;;1.90;1.00;;;;;;;;;;5013901;28;20471;-67
2022/09/10 00:09:53;;;;;;;3.37;0.80;;;;;;;;;;5014051;28;20426;-67
2022/09/10 00:12:19;;;;;;;0.60;0.60;;;;;;;;;;5014042;28;20419;-67
2022/09/10 00:14:45;;;;;;;0.90;0.90;;;;;;;;;;5013959;28;20471;-67
2022/09/10 00:17:11;;;;;;;1.10;1.00;;;;;;;;;;5013938;28;20419;-66
2022/09/10 00:19:37;;;;;;;3.23;1.00;;;;;;;;;;5013928;28;20410;-66
2022/09/10 00:22:03;;;;;;;1.23;0.70;;;;;;;;;;5013930;28;20416;-66
2022/09/10 00:24:29;;;;;;;1.00;0.90;;;;;;;;;;5013744;28;20510;-66
2022/09/10 00:26:55;;;;;;;3.17;1.10;;;;;;;;;;5012445;28;20476;-66
2022/09/10 00:29:21;;;;;;;1.20;1.00;;;;;;;;;;5013826;28;20398;-66
2022/09/10 00:31:48;;;;;;;1.77;1.00;;;;;;;;;;5014004;28;20415;-67
2022/09/10 00:34:14;;;;;;;4.47;1.30;;;;;;;;;;5013738;28;20970;-65
2022/09/10 00:36:41;;;;;;;1.87;0.80;;;;;;;;;;5013685;28;20884;-65
2022/09/10 00:39:19;;;;;;;3.47;1.20;;;;;;;;;;5013647;28;20896;-65
2022/09/10 00:41:46;;;;;;;1.93;1.30;;;;;;;;;;5013848;28;20426;-66
2022/09/10 00:44:30;;;;;;;3.80;0.93;;;;;;;;;;5013533;28;20444;-66
2022/09/10 00:46:58;;;;;;;1.97;1.10;;;;;;;;;;5013464;28;20562;-66
2022/09/10 00:49:44;;;;;;;6.53;1.07;;;;;;;;;;5013605;28;20400;-66
2022/09/10 00:52:11;;;;;;;2.20;1.07;;;;;;;;;;5013240;28;20816;-65
2022/09/10 00:54:38;;;;;;;1.40;1.17;;;;;;;;;;5013421;28;20440;-66
2022/09/10 00:57:07;;;;;;;1.57;1.00;;;;;;;;;;5013394;28;20446;-66
2022/09/10 00:59:34;;;;;;;2.90;1.00;;;;;;;;;;5013454;28;20756;-65
2022/09/10 01:02:01;;;;;;;3.23;1.00;;;;;;;;;;5013374;28;20412;-67
2022/09/10 01:04:27;;;;;;;1.77;0.90;;;;;;;;;;5012130;28;20439;-68
2022/09/10 01:06:54;;;;;;;1.67;0.90;;;;;;;;;;5013375;28;20471;-67
2022/09/10 01:09:20;;;;;;;1.73;1.10;;;;;;;;;;5013433;28;20440;-67
2022/09/10 01:12:09;;;;;;;3.23;1.50;;;;;;;;;;5013373;28;20424;-67
2022/09/10 01:14:53;;;;;;;2.20;1.00;;;;;;;;;;5013266;28;20420;-68
2022/09/10 01:17:19;;;;;;;2.13;1.20;;;;;;;;;;5013281;28;20508;-67
2022/09/10 01:20:07;;;;;;;1.43;0.90;;;;;;;;;;5014570;28;20427;-67
2022/09/10 01:22:39;;;;;;;2.33;1.20;;;;;;;;;;5016952;28;20416;-66
2022/09/10 01:25:16;;;;;;;1.07;1.07;;;;;;;;;;5016922;28;20792;-66
2022/09/10 01:27:44;;;;;;;9.67;1.10;;;;;;;;;;5016856;28;20831;-65
2022/09/10 01:30:19;;;;;;;2.07;1.27;;;;;;;;;;5016778;28;20807;-66
2022/09/10 01:32:55;;;;;;;4.93;1.27;;;;;;;;;;5016807;28;20417;-66
2022/09/10 01:35:23;;;;;;;3.47;1.10;;;;;;;;;;5016788;28;20912;-66
2022/09/10 01:37:58;;;;;;;1.70;1.30;;;;;;;;;;5015396;28;20427;-67
2022/09/10 01:40:28;;;;;;;2.87;0.90;;;;;;;;;;5016673;28;20421;-67
2022/09/10 01:42:59;;;;;;;4.93;1.03;;;;;;;;;;5016654;28;20412;-67
2022/09/10 01:45:26;;;;;;;1.20;1.10;;;;;;;;;;5016494;28;20427;-68
2022/09/10 01:47:58;;;;;;;4.93;1.30;;;;;;;;;;5016764;28;20424;-67
2022/09/10 01:50:29;;;;;;;1.90;1.20;;;;;;;;;;5016481;28;20423;-67
2022/09/10 01:53:00;;;;;;;1.40;1.30;;;;;;;;;;5014976;28;21051;-68
2022/09/10 01:55:29;;;;;;;2.80;1.23;;;;;;;;;;5016367;28;20480;-68
2022/09/10 01:58:15;;;;;;;3.20;1.20;;;;;;;;;;5016292;28;20411;-66
2022/09/10 02:00:44;;;;;;;2.00;1.20;;;;;;;;;;5016335;28;20469;-68
2022/09/10 02:03:14;;;;;;;1.50;1.30;;;;;;;;;;5016235;28;20407;-67
2022/09/10 02:05:41;;;;;;;3.63;1.23;;;;;;;;;;5014822;28;20982;-66
2022/09/10 02:08:14;;;;;;;1.40;1.00;;;;;;;;;;5016168;28;20447;-65
2022/09/10 02:10:58;;;;;;;4.30;1.17;;;;;;;;;;5016029;28;20444;-67
2022/09/10 02:13:25;;;;;;;3.67;1.20;;;;;;;;;;5016024;28;20489;-66
2022/09/10 02:15:52;;;;;;;3.93;1.40;;;;;;;;;;5014770;28;20434;-66
2022/09/10 02:18:19;;;;;;;1.10;0.90;;;;;;;;;;5016019;28;20416;-66
2022/09/10 02:20:45;;;;;;;2.40;1.10;;;;;;;;;;5015979;28;20412;-66
2022/09/10 02:23:12;;;;;;;5.10;1.00;;;;;;;;;;5015837;28;20446;-66
2022/09/10 02:25:38;;;;;;;4.70;1.90;;;;;;;;;;5015897;28;20827;-66
2022/09/10 02:28:07;;;;;;;8.23;1.30;;;;;;;;;;5015829;28;20507;-65
2022/09/10 02:30:33;;;;;;;5.03;1.47;;;;;;;;;;5015040;28;20415;-66
2022/09/10 02:32:59;;;;;;;1.80;1.00;;;;;;;;;;5015161;28;20445;-65
2022/09/10 02:35:25;;;;;;;2.03;1.00;;;;;;;;;;5015663;28;20426;-66
2022/09/10 02:37:52;;;;;;;2.30;0.97;;;;;;;;;;5015565;28;20402;-66
2022/09/10 02:40:18;;;;;;;4.53;1.30;;;;;;;;;;5015552;28;20431;-65
2022/09/10 02:42:45;;;;;;;4.63;1.07;;;;;;;;;;5015442;28;20411;-66
2022/09/10 02:45:12;;;;;;;1.00;1.00;;;;;;;;;;5014227;28;20437;-65
2022/09/10 02:47:38;;;;;;;2.30;1.40;;;;;;;;;;5015317;28;20475;-67
2022/09/10 02:50:04;;;;;;;1.43;1.10;;;;;;;;;;5015233;28;20538;-67
2022/09/10 02:52:30;;;;;;;3.10;1.20;;;;;;;;;;5015220;28;20474;-66
2022/09/10 02:54:56;;;;;;;2.20;1.07;;;;;;;;;;5013939;28;20447;-66
2022/09/10 02:57:23;;;;;;;2.50;1.30;;;;;;;;;;5015220;28;20442;-66
2022/09/10 02:59:49;;;;;;;2.93;1.27;;;;;;;;;;5015202;28;20411;-65
2022/09/10 03:02:15;;;;;;;3.27;1.20;;;;;;;;;;5013898;28;20464;-66
2022/09/10 03:04:41;;;;;;;2.40;0.90;;;;;;;;;;5015048;28;20411;-67
2022/09/10 03:07:07;;;;;;;0.97;0.80;;;;;;;;;;5014917;28;20965;-65
2022/09/10 03:09:34;;;;;;;1.73;1.20;;;;;;;;;;5014993;28;20768;-66
2022/09/10 03:12:00;;;;;;;3.27;1.03;;;;;;;;;;5014956;28;20404;-67
2022/09/10 03:14:29;;;;;;;1.33;0.70;;;;;;;;;;5014895;28;20408;-65
2022/09/10 03:16:56;;;;;;;1.00;1.00;;;;;;;;;;5013654;28;20431;-67
2022/09/10 03:19:23;;;;;;;3.87;0.97;;;;;;;;;;5014978;28;20437;-66
2022/09/10 03:21:49;;;;;;;3.43;0.90;;;;;;;;;;5014838;28;20418;-66
2022/09/10 03:24:15;;;;;;;0.80;0.80;;;;;;;;;;5013493;28;20442;-66
2022/09/10 03:26:42;;;;;;;1.93;0.80;;;;;;;;;;5014593;28;20462;-66
2022/09/10 03:29:08;;;;;;;2.17;1.10;;;;;;;;;;5014796;28;20816;-66
2022/09/10 03:31:35;;;;;;;1.00;1.00;;;;;;;;;;5014622;28;20415;-66
2022/09/10 03:34:01;;;;;;;1.73;1.07;;;;;;;;;;5014435;28;20981;-66
2022/09/10 03:36:29;;;;;;;2.20;1.33;;;;;;;;;;5014775;28;20501;-66
2022/09/10 03:38:55;;;;;;;1.10;1.10;;;;;;;;;;5014497;28;20399;-66
2022/09/10 03:41:21;;;;;;;1.40;0.87;;;;;;;;;;5013138;28;20407;-66
2022/09/10 03:43:47;;;;;;;3.23;1.00;;;;;;;;;;5014050;28;20442;-66
2022/09/10 03:46:13;;;;;;;2.90;1.20;;;;;;;;;;5014285;28;20471;-66
2022/09/10 03:48:39;;;;;;;2.90;1.33;;;;;;;;;;5013039;28;20426;-66
2022/09/10 03:51:05;;;;;;;3.33;1.00;;;;;;;;;;5014116;28;20567;-66
2022/09/10 03:53:31;;;;;;;1.40;1.20;;;;;;;;;;5014282;28;20412;-66
2022/09/10 03:55:57;;;;;;;1.13;1.13;;;;;;;;;;5014170;28;20422;-66
2022/09/10 03:58:23;;;;;;;1.00;0.90;;;;;;;;;;5014157;28;20419;-66
2022/09/10 04:00:49;;;;;;;3.00;1.40;;;;;;;;;;5014121;28;20455;-66
2022/09/10 04:03:15;;;;;;;4.50;1.60;;;;;;;;;;5014108;28;20418;-65
2022/09/10 04:05:44;;;;;;;6.00;1.50;;;;;;;;;;5013982;28;20760;-66
2022/09/10 04:08:14;;;;;;;6.33;1.10;;;;;;;;;;5013926;28;20418;-66
2022/09/10 04:10:40;;;;;;;3.03;1.37;;;;;;;;;;5013973;28;20417;-65
2022/09/10 04:13:06;;;;;;;1.67;1.17;;;;;;;;;;5013856;28;20430;-65
2022/09/10 04:15:32;;;;;;;1.53;1.23;;;;;;;;;;5013866;28;20472;-65
2022/09/10 04:17:58;;;;;;;6.73;1.50;;;;;;;;;;5013833;28;20501;-65
2022/09/10 04:20:24;;;;;;;2.10;1.80;;;;;;;;;;5013897;28;20498;-65
2022/09/10 04:22:50;;;;;;;1.67;1.67;;;;;;;;;;5013851;28;20415;-65
2022/09/10 04:25:17;;;;;;;1.60;1.50;;;;;;;;;;5013735;28;21000;-65
2022/09/10 04:27:43;;;;;;;5.30;1.53;;;;;;;;;;5013674;28;20468;-66
2022/09/10 04:30:10;;;;;;;1.87;1.27;;;;;;;;;;5013662;28;20410;-64
2022/09/10 04:32:37;;;;;;;3.37;1.50;;;;;;;;;;5013628;28;20457;-64
2022/09/10 04:35:03;;;;;;;1.83;1.63;;;;;;;;;;5013664;28;20402;-65
2022/09/10 04:37:30;;;;;;;1.20;1.20;;;;;;;;;;5012628;28;21006;-66
2022/09/10 04:39:56;;;;;;;4.77;1.83;;;;;;;;;;5013586;28;20509;-65
2022/09/10 04:42:22;;;;;;;1.43;1.20;;;;;;;;;;5013511;28;20516;-65
2022/09/10 04:44:50;;;;;;;7.13;1.30;;;;;;;;;;5012214;28;20484;-66
2022/09/10 04:47:17;;;;;;;3.23;1.27;;;;;;;;;;5013552;28;20910;-65
2022/09/10 04:49:43;;;;;;;2.80;1.60;;;;;;;;;;5013800;28;20796;-67
2022/09/10 04:52:12;;;;;;;1.80;1.70;;;;;;;;;;5012114;28;20474;-66
2022/09/10 04:54:39;;;;;;;3.53;2.10;;;;;;;;;;5014573;28;20537;-69
2022/09/10 04:57:05;;;;;;;2.30;1.47;;;;;;;;;;5017504;28;20410;-69
2022/09/10 04:59:32;;;;;;;3.60;1.47;;;;;;;;;;5016247;28;20435;-69
2022/09/10 05:01:58;;;;;;;4.67;1.47;;;;;;;;;;5017401;28;20455;-70
2022/09/10 05:04:24;;;;;;;2.17;1.70;;;;;;;;;;5017400;28;20420;-69
2022/09/10 05:06:50;;;;;;;5.90;1.90;;;;;;;;;;5015945;28;20539;-69
2022/09/10 05:09:19;;;;;;;1.77;1.67;;;;;;;;;;5017273;28;20407;-69
2022/09/10 05:11:46;;;;;;;4.30;1.97;;;;;;;;;;5017235;28;20781;-69
2022/09/10 05:14:12;;;;;;;3.40;1.50;;;;;;;;;;5015858;28;20414;-69
2022/09/10 05:16:38;;;;;;;3.93;1.77;;;;;;;;;;5017151;28;20430;-69
2022/09/10 05:19:05;;;;;;;1.93;1.33;;;;;;;;;;5017098;28;20410;-69
2022/09/10 05:21:31;;;;;;;1.47;1.37;;;;;;;;;;5017073;28;20472;-68
2022/09/10 05:23:57;;;;;;;3.30;1.60;;;;;;;;;;5017029;28;20410;-69
2022/09/10 05:26:23;;;;;;;4.63;1.40;;;;;;;;;;5016789;28;20490;-69
2022/09/10 05:28:52;;;;;;;3.53;1.83;;;;;;;;;;5016942;28;20770;-69
2022/09/10 05:31:18;;;;;;;1.73;1.33;;;;;;;;;;5015548;28;20843;-69
2022/09/10 05:33:45;;;;;;;2.43;1.40;;;;;;;;;;5016790;28;20476;-69
2022/09/10 05:36:11;;;;;;;2.33;1.40;;;;;;;;;;5016747;28;20888;-71
2022/09/10 05:38:38;;;;;;;1.50;1.50;;;;;;;;;;5016725;28;20496;-69
2022/09/10 05:41:05;;;;;;;5.00;1.67;;;;;;;;;;5016731;28;20422;-70
2022/09/10 05:43:31;;;;;;;2.13;1.40;;;;;;;;;;5016645;28;20909;-70
2022/09/10 05:45:57;;;;;;;2.97;1.67;;;;;;;;;;5016796;28;20458;-71
2022/09/10 05:48:23;;;;;;;3.93;1.60;;;;;;;;;;5016651;28;20405;-70
2022/09/10 05:50:49;;;;;;;3.80;1.80;;;;;;;;;;5016260;28;20494;-67
2022/09/10 05:53:16;;;;;;;1.80;1.70;;;;;;;;;;5016112;28;20457;-70
2022/09/10 05:55:42;;;;;;;1.60;1.50;;;;;;;;;;5016316;28;20411;-71
2022/09/10 05:58:08;;;;;;;4.93;1.90;;;;;;;;;;5016380;28;20418;-71
2022/09/10 06:00:35;;;;;;;4.83;1.70;;;;;;;;;;5016248;28;20418;-70
2022/09/10 06:03:03;;;;;;;6.10;2.00;;;;;;;;;;5016165;28;20402;-70
2022/09/10 06:05:29;;;;;;;8.63;2.87;;;;;;;;;;5015962;28;20402;-70
2022/09/10 06:07:55;;;;;;;5.30;4.07;;;;;;;;;;5016452;28;20430;-68
2022/09/10 06:10:21;;;;;;;4.17;2.93;;;;;;;;;;5016319;28;20424;-68
2022/09/10 06:12:48;;;;;;;3.97;2.30;;;;;;;;;;5016130;28;20423;-69
2022/09/10 06:15:15;;;;;;;5.47;2.27;;;;;;;;;;5016068;28;20895;-69
2022/09/10 06:17:41;;;;;;;8.90;2.77;;;;;;;;;;5015955;28;20458;-69
2022/09/10 06:20:08;;;;;;;3.87;2.20;;;;;;;;;;5015927;28;20407;-71
2022/09/10 06:22:34;;;;;;;2.60;2.00;;;;;;;;;;5015988;28;20422;-70
2022/09/10 06:25:00;;;;;;;2.80;2.10;;;;;;;;;;4998237;28;20457;-71
2022/09/10 06:27:26;;;;;;;5.67;3.00;;;;;;;;;;5015719;28;20471;-70
2022/09/10 06:29:52;;;;;;;15.17;2.80;;;;;;;;;;5015756;28;20465;-70
2022/09/10 06:32:18;;;;;;;8.13;2.57;;;;;;;;;;5015682;28;20461;-70
2022/09/10 06:34:44;;;;;;;3.53;2.73;;;;;;;;;;5015589;28;20404;-72
2022/09/10 06:37:10;;;;;;;3.20;2.40;;;;;;;;;;5015518;28;20496;-72
2022/09/10 06:39:36;;;;;;;5.80;2.57;;;;;;;;;;5015512;28;20405;-70
2022/09/10 06:42:02;;;;;;;5.40;2.20;;;;;;;;;;5015791;28;20415;-71
2022/09/10 06:44:28;;;;;;;6.53;2.50;;;;;;;;;;5015430;28;21001;-68
2022/09/10 06:46:54;;;;;;;3.07;2.10;;;;;;;;;;5015311;28;20968;-69
2022/09/10 06:49:20;;;;;;;6.40;2.20;;;;;;;;;;5015400;28;20502;-71
2022/09/10 06:51:48;;;;;;;8.17;2.63;;;;;;;;;;5015188;28;20528;-70
2022/09/10 06:54:14;;;;;;;2.90;2.30;;;;;;;;;;5015300;28;20407;-70
2022/09/10 06:56:41;;;;;;;4.17;2.00;;;;;;;;;;5015174;28;20419;-70
2022/09/10 06:59:08;;;;;;;5.90;2.00;;;;;;;;;;5015232;28;20508;-70
2022/09/10 07:01:34;;;;;;;3.60;2.30;;;;;;;;;;4997641;28;20430;-70
2022/09/10 07:04:00;;;;;;;6.83;2.23;;;;;;;;;;4997420;28;20426;-69
2022/09/10 07:06:27;;;;;;;8.40;2.93;;;;;;;;;;5014970;28;20549;-69
2022/09/10 07:08:57;;;;;;;10.00;2.20;;;;;;;;;;5015023;28;20410;-70
2022/09/10 07:11:23;;;;;;;10.73;7.97;;;;;;;;;;5015001;28;20424;-69
2022/09/10 07:13:53;;;;;;;3.13;2.10;;;;;;;;;;5014844;28;20411;-69
2022/09/10 07:16:24;;;;;;;6.97;2.17;;;;;;;;;;5014822;28;20450;-71
2022/09/10 07:18:51;;;;;;;4.73;2.17;;;;;;;;;;5014277;28;20415;-70
2022/09/10 07:21:18;;;;;;;7.10;2.70;;;;;;;;;;5014731;28;20416;-69
2022/09/10 07:23:47;;;;;;;5.10;1.97;;;;;;;;;;5014852;28;20408;-69
2022/09/10 07:26:14;;;;;;;3.40;1.80;;;;;;;;;;5014867;28;20467;-70
2022/09/10 07:28:41;;;;;;;6.53;3.30;;;;;;;;;;5014624;28;20420;-71
2022/09/10 07:31:10;;;;;;;4.10;3.67;;;;;;;;;;5014666;28;20491;-71
2022/09/10 07:33:36;;;;;;;8.40;2.67;;;;;;;;;;5014831;28;20427;-70
2022/09/10 07:36:02;;;;;;;2.80;2.20;;;;;;;;;;5014503;28;20412;-70
2022/09/10 07:38:28;;;;;;;5.43;2.30;;;;;;;;;;4996930;28;20431;-71
2022/09/10 07:40:54;;;;;;;5.83;2.83;;;;;;;;;;5014412;28;20423;-71
2022/09/10 07:43:20;;;;;;;4.67;1.83;;;;;;;;;;5014372;28;20420;-68
2022/09/10 07:45:46;;;;;;;5.07;2.10;;;;;;;;;;5014228;28;20451;-70
2022/09/10 07:48:12;;;;;;;2.60;1.80;;;;;;;;;;5014242;28;20419;-70
2022/09/10 07:50:38;;;;;;;9.70;2.30;;;;;;;;;;5014144;28;20408;-70
2022/09/10 07:53:05;;;;;;;5.20;1.93;;;;;;;;;;5014206;28;20419;-71
2022/09/10 07:55:31;;;;;;;7.37;2.07;;;;;;;;;;5014200;28;20430;-70
2022/09/10 07:57:57;;;;;;;6.30;2.80;;;;;;;;;;5014189;28;20597;-70
2022/09/10 08:00:23;;;;;;;5.30;2.30;;;;;;;;;;4996504;28;20423;-70
2022/09/10 08:02:49;;;;;;;2.30;1.63;;;;;;;;;;4996494;28;20834;-71
2022/09/10 08:05:15;;;;;;;6.43;2.70;;;;;;;;;;4996477;28;20554;-71
2022/09/10 08:07:42;;;;;;;6.17;2.23;;;;;;;;;;5013957;28;20558;-70
2022/09/10 08:10:08;;;;;;;4.20;2.30;;;;;;;;;;5013847;28;20459;-69
2022/09/10 08:12:38;;;;;;;4.07;2.27;;;;;;;;;;5013895;28;20422;-70
2022/09/10 08:15:04;;;;;;;3.30;2.00;;;;;;;;;;5013913;28;20771;-71
2022/09/10 08:17:31;;;;;;;5.97;2.07;;;;;;;;;;5013853;28;20418;-68
2022/09/10 08:19:58;;;;;;;2.50;2.17;;;;;;;;;;5014175;28;20453;-70
2022/09/10 08:22:24;;;;;;;4.10;2.67;;;;;;;;;;5013780;28;20407;-68
2022/09/10 08:24:50;;;;;;;3.23;2.20;;;;;;;;;;5013801;28;20461;-68
2022/09/10 08:27:16;;;;;;;2.40;1.90;;;;;;;;;;5013745;28;20480;-68
2022/09/10 08:29:42;;;;;;;4.10;2.37;;;;;;;;;;5013715;28;20409;-68
2022/09/10 08:32:09;;;;;;;4.13;1.93;;;;;;;;;;5013752;28;20426;-68
2022/09/10 08:34:34;;;;;;;2.00;1.90;;;;;;;;;;5013636;28;20404;-68
2022/09/10 08:37:02;;;;;;;1.97;1.70;;;;;;;;;;5013628;28;20503;-68
2022/09/10 08:39:29;;;;;;;4.30;2.07;;;;;;;;;;5013648;28;20425;-69
2022/09/10 08:41:59;;;;;;;2.10;1.70;;;;;;;;;;5013561;28;20424;-68
2022/09/10 08:44:26;;;;;;;6.13;2.00;;;;;;;;;;5013575;28;20407;-66
2022/09/10 08:47:11;;;;;;;6.30;1.83;;;;;;;;;;5013436;28;20503;-68
2022/09/10 08:49:37;;;;;;;1.60;1.50;;;;;;;;;;5013527;28;20431;-68
2022/09/10 08:52:03;;;;;;;3.93;1.50;;;;;;;;;;5013327;28;20506;-69
2022/09/10 08:54:36;;;;;;;3.10;1.53;;;;;;;;;;5013457;28;20412;-66
2022/09/10 08:57:03;;;;;;;1.67;1.43;;;;;;;;;;4995669;28;20423;-67
2022/09/10 08:59:32;;;;;;;2.70;1.47;;;;;;;;;;5013362;28;20550;-68
2022/09/10 09:01:59;;;;;;;1.73;1.63;;;;;;;;;;4995706;28;20423;-69
2022/09/10 09:04:37;;;;;;;1.57;1.50;;;;;;;;;;5013175;28;20450;-68
2022/09/10 09:07:09;;;;;;;1.57;1.33;;;;;;;;;;5013160;28;20882;-68
2022/09/10 09:09:35;;;;;;;3.83;1.87;;;;;;;;;;5013274;28;20428;-68
2022/09/10 09:12:04;;;;;;;1.60;1.50;;;;;;;;;;5013131;28;20428;-67
2022/09/10 09:14:34;;;;;;;3.67;2.07;;;;;;;;;;5013134;28;20883;-67
2022/09/10 09:17:00;;;;;;;3.93;2.10;;;;;;;;;;5013228;28;20404;-68
2022/09/10 09:19:33;;;;;;;1.80;1.67;;;;;;;;;;5013177;28;20407;-67
2022/09/10 09:22:26;;;;;;;1.50;1.40;;;;;;;;;;5013150;28;20404;-67
2022/09/10 09:25:01;;;;;;;1.97;1.43;;;;;;;;;;5010272;28;20427;-66
2022/09/10 09:27:31;;;;;;;3.53;1.50;;;;;;;;;;5013066;28;20473;-66
2022/09/10 09:30:13;;;;;;;1.70;1.60;;;;;;;;;;4995433;28;20907;-66
2022/09/10 09:32:43;;;;;;;3.60;1.53;;;;;;;;;;5013091;28;20408;-66
2022/09/10 09:35:27;;;;;;;2.50;1.60;;;;;;;;;;5013073;28;20871;-66
2022/09/10 09:38:08;;;;;;;1.30;1.30;;;;;;;;;;5013130;28;20497;-67
2022/09/10 09:40:43;;;;;;;1.80;1.30;;;;;;;;;;5013881;28;20479;-67
2022/09/10 09:43:20;;;;;;;1.20;1.10;;;;;;;;;;5016650;28;20412;-67
2022/09/10 09:45:46;;;;;;;5.50;1.40;;;;;;;;;;5016524;28;20397;-67
2022/09/10 09:48:16;;;;;;;1.50;1.40;;;;;;;;;;5016509;28;20416;-66
2022/09/10 09:50:43;;;;;;;3.07;1.50;;;;;;;;;;4998657;28;20415;-66
2022/09/10 09:53:14;;;;;;;1.93;1.37;;;;;;;;;;5016411;28;20432;-65
2022/09/10 09:55:43;;;;;;;2.70;1.30;;;;;;;;;;4998718;28;20428;-66
2022/09/10 09:58:21;;;;;;;2.80;1.60;;;;;;;;;;5016302;28;20407;-66
2022/09/10 10:00:53;;;;;;;1.70;1.40;;;;;;;;;;4998767;28;20793;-66
2022/09/10 10:03:26;;;;;;;1.60;1.60;;;;;;;;;;4998526;28;20854;-66
2022/09/10 10:06:01;;;;;;;5.80;1.20;;;;;;;;;;5016178;28;20403;-66
2022/09/10 10:08:32;;;;;;;2.10;1.67;;;;;;;;;;4998666;28;20927;-66
2022/09/10 10:10:58;;;;;;;1.47;1.47;;;;;;;;;;5015987;28;20423;-66
2022/09/10 10:13:25;;;;;;;1.50;1.40;;;;;;;;;;5016354;28;20420;-68
2022/09/10 10:15:52;;;;;;;3.00;1.50;;;;;;;;;;4998479;28;20416;-68
2022/09/10 10:18:21;;;;;;;3.43;1.90;;;;;;;;;;5016064;28;20408;-69
2022/09/10 10:20:48;;;;;;;2.50;1.77;;;;;;;;;;5015887;28;20442;-67
2022/09/10 10:23:29;;;;;;;2.60;1.80;;;;;;;;;;5016040;28;20903;-66
2022/09/10 10:25:55;;;;;;;1.73;1.63;;;;;;;;;;5015727;28;20420;-67
2022/09/10 10:28:23;;;;;;;1.37;1.37;;;;;;;;;;5015812;28;20481;-66
2022/09/10 10:30:53;;;;;;;2.50;1.60;;;;;;;;;;5015801;28;20498;-72
2022/09/10 10:33:23;;;;;;;3.40;1.90;;;;;;;;;;5015749;28;20807;-68
2022/09/10 10:35:55;;;;;;;3.07;2.10;;;;;;;;;;5015699;28;20429;-67
2022/09/10 10:38:32;;;;;;;7.10;1.40;;;;;;;;;;5015647;28;20408;-68
2022/09/10 10:41:08;;;;;;;5.57;1.83;;;;;;;;;;5015516;28;20424;-67
2022/09/10 10:43:34;;;;;;;1.73;1.63;;;;;;;;;;5015722;28;20407;-66
2022/09/10 10:46:14;;;;;;;5.60;2.37;;;;;;;;;;5015382;28;20903;-67
2022/09/10 10:48:41;;;;;;;1.70;1.60;;;;;;;;;;5015340;28;20415;-67
2022/09/10 10:51:08;;;;;;;8.90;1.60;;;;;;;;;;5015191;28;20538;-66
2022/09/10 10:53:52;;;;;;;1.57;1.47;;;;;;;;;;5014371;28;20400;-67
2022/09/10 10:56:29;;;;;;;2.80;1.70;;;;;;;;;;5015189;28;20510;-67
2022/09/10 10:58:58;;;;;;;4.00;1.73;;;;;;;;;;4997584;28;20430;-66
2022/09/10 11:01:26;;;;;;;3.57;1.70;;;;;;;;;;5015238;28;20424;-67
2022/09/10 11:04:21;;;;;;;2.27;1.50;;;;;;;;;;5015102;28;20469;-68
2022/09/10 11:06:52;;;;;;;2.17;1.20;;;;;;;;;;5015051;28;20940;-68
2022/09/10 11:09:25;;;;;;;3.97;1.40;;;;;;;;;;5015055;28;20402;-68
2022/09/10 11:12:10;;;;;;;1.70;1.40;;;;;;;;;;4997367;28;20518;-69
2022/09/10 11:14:48;;;;;;;5.70;1.20;;;;;;;;;;5015094;28;20837;-67
2022/09/10 11:17:29;;;;;;;2.57;1.33;;;;;;;;;;5014963;28;20409;-69
2022/09/10 11:19:59;;;;;;;1.33;1.23;;;;;;;;;;4997293;28;20452;-67
2022/09/10 11:22:30;;;;;;;4.13;1.40;;;;;;;;;;5014787;28;20402;-67
2022/09/10 11:24:55;;;;;;;2.10;2.00;;;;;;;;;;5014782;28;20409;-67
2022/09/10 11:27:38;;;;;;;5.07;2.63;;;;;;;;;;5014730;28;20479;-69
2022/09/10 11:30:12;;;;;;;5.40;1.20;;;;;;;;;;4997092;28;20796;-71
2022/09/10 11:32:54;;;;;;;2.37;1.20;;;;;;;;;;5014600;28;20411;-67
2022/09/10 11:35:39;;;;;;;2.60;1.23;;;;;;;;;;5014518;28;20503;-67
2022/09/10 11:38:19;;;;;;;3.50;1.57;;;;;;;;;;5014845;28;20415;-69
2022/09/10 11:40:52;;;;;;;2.67;1.30;;;;;;;;;;5014330;28;20800;-67
2022/09/10 11:43:25;;;;;;;2.70;1.33;;;;;;;;;;5014399;28;20428;-67
2022/09/10 11:45:54;;;;;;;11.30;1.77;;;;;;;;;;5014402;28;20400;-68
2022/09/10 11:48:32;;;;;;;6.20;1.60;;;;;;;;;;5014288;28;20417;-69
2022/09/10 11:51:01;;;;;;;7.40;1.13;;;;;;;;;;5014031;28;20401;-67
2022/09/10 11:53:29;;;;;;;1.30;1.10;;;;;;;;;;5014260;28;20447;-68
2022/09/10 11:56:04;;;;;;;0.87;0.70;;;;;;;;;;5014170;28;20899;-68
2022/09/10 11:58:56;;;;;;;2.50;1.27;;;;;;;;;;5014192;28;20417;-68
2022/09/10 12:01:38;;;;;;;14.17;1.43;;;;;;;;;;5011309;28;20443;-66
2022/09/10 12:04:11;;;;;;;2.57;0.73;;;;;;;;;;5013835;28;20413;-67
2022/09/10 12:06:41;;;;;;;3.70;0.90;;;;;;;;;;4996410;28;20486;-67
2022/09/10 12:09:08;;;;;;;0.70;0.70;;;;;;;;;;5014026;28;20406;-67
2022/09/10 12:11:37;;;;;;;2.70;0.80;;;;;;;;;;5013977;28;20437;-67
2022/09/10 12:14:06;;;;;;;3.33;0.70;;;;;;;;;;5013955;28;20412;-68
2022/09/10 12:16:37;;;;;;;1.70;1.00;;;;;;;;;;4996272;28;20433;-68
2022/09/10 12:19:25;;;;;;;0.90;0.90;;;;;;;;;;4996198;28;20449;-68
2022/09/10 12:22:05;;;;;;;0.83;0.63;;;;;;;;;;5003930;28;20426;-67
2022/09/10 12:24:36;;;;;;;2.03;0.83;;;;;;;;;;4996106;28;20420;-67
2022/09/10 12:27:04;;;;;;;1.03;1.00;;;;;;;;;;5013593;28;20480;-68
2022/09/10 12:29:32;;;;;;;1.33;0.90;;;;;;;;;;5013761;28;20437;-68
2022/09/10 12:32:16;;;;;;;0.97;0.70;;;;;;;;;;5014065;28;20412;-67
2022/09/10 12:34:45;;;;;;;1.00;0.87;;;;;;;;;;5013749;28;20399;-67
2022/09/10 12:37:40;;;;;;;0.63;0.60;;;;;;;;;;5013419;28;20406;-67
2022/09/10 12:40:30;;;;;;;0.93;0.80;;;;;;;;;;5000117;28;20423;-66
2022/09/10 12:42:59;;;;;;;1.10;0.77;;;;;;;;;;5006147;28;20418;-68
2022/09/10 12:45:54;;;;;;;1.23;1.10;;;;;;;;;;4995937;28;20430;-67
2022/09/10 12:48:20;;;;;;;0.90;0.90;;;;;;;;;;5000675;28;20443;-66
2022/09/10 12:50:51;;;;;;;1.17;0.70;;;;;;;;;;5013287;28;20423;-68
2022/09/10 12:53:30;;;;;;;2.83;0.80;;;;;;;;;;5013540;28;20415;-68
2022/09/10 12:55:56;;;;;;;2.50;1.30;;;;;;;;;;5013591;28;20439;-67
2022/09/10 12:58:22;;;;;;;1.07;0.70;;;;;;;;;;5013563;28;20398;-67
2022/09/10 13:00:54;;;;;;;2.10;0.80;;;;;;;;;;4995914;28;20425;-70
2022/09/10 13:03:21;;;;;;;5.40;0.93;;;;;;;;;;5013357;28;20426;-66
2022/09/10 13:05:53;;;;;;;0.80;0.80;;;;;;;;;;5013337;28;20482;-66
2022/09/10 13:08:27;;;;;;;1.20;1.20;;;;;;;;;;5013052;28;20527;-67
2022/09/10 13:10:56;;;;;;;0.97;0.90;;;;;;;;;;5012912;28;20488;-65
2022/09/10 13:13:32;;;;;;;1.20;0.60;;;;;;;;;;5013593;28;20406;-66
2022/09/10 13:15:59;;;;;;;0.93;0.83;;;;;;;;;;5014999;28;20930;-66
2022/09/10 13:18:32;;;;;;;4.10;1.27;;;;;;;;;;5017107;28;20444;-66
2022/09/10 13:20:59;;;;;;;1.23;1.13;;;;;;;;;;5017088;28;20420;-66
2022/09/10 13:23:46;;;;;;;3.40;0.90;;;;;;;;;;5017039;28;20875;-67
2022/09/10 13:26:32;;;;;;;2.30;1.03;;;;;;;;;;5016908;28;20469;-67
2022/09/10 13:29:00;;;;;;;1.00;0.80;;;;;;;;;;5017248;28;20407;-65
2022/09/10 13:31:26;;;;;;;0.73;0.73;;;;;;;;;;5017220;28;20513;-64
2022/09/10 13:33:52;;;;;;;1.57;0.70;;;;;;;;;;5016902;28;20929;-66
2022/09/10 13:36:30;;;;;;;1.67;1.00;;;;;;;;;;5016817;28;20398;-69
2022/09/10 13:39:13;;;;;;;0.93;0.70;;;;;;;;;;5016799;28;20174;-65
2022/09/10 13:41:48;;;;;;;1.30;0.80;;;;;;;;;;5016637;28;20408;-65
2022/09/10 13:44:14;;;;;;;2.23;1.00;;;;;;;;;;5001458;28;20595;-67
2022/09/10 13:46:42;;;;;;;1.87;1.00;;;;;;;;;;4998982;28;20521;-70
2022/09/10 13:49:13;;;;;;;2.30;1.17;;;;;;;;;;5014072;28;20904;-67
2022/09/10 13:51:45;;;;;;;3.03;1.00;;;;;;;;;;5013982;28;20516;-70
2022/09/10 13:54:25;;;;;;;1.20;1.10;;;;;;;;;;5013854;28;20423;-73
2022/09/10 13:56:52;;;;;;;3.63;0.70;;;;;;;;;;5014131;28;20785;-66
2022/09/10 13:59:29;;;;;;;1.10;1.00;;;;;;;;;;5013905;28;20421;-72
2022/09/10 14:01:55;;;;;;;1.40;0.90;;;;;;;;;;4998122;28;20454;-71
2022/09/10 14:04:27;;;;;;;0.80;0.80;;;;;;;;;;5014979;28;20420;-74
2022/09/10 14:07:00;;;;;;;1.40;0.90;;;;;;;;;;5016152;28;20479;-74
2022/09/10 14:09:26;;;;;;;1.00;0.77;;;;;;;;;;5014207;28;20762;-68
2022/09/10 14:11:53;;;;;;;1.60;1.03;;;;;;;;;;4996835;28;20418;-71
2022/09/10 14:14:29;;;;;;;1.17;0.83;;;;;;;;;;4996469;28;20473;-70
2022/09/10 14:16:59;;;;;;;3.30;1.30;;;;;;;;;;4996462;28;20413;-71
2022/09/10 14:19:27;;;;;;;1.80;1.00;;;;;;;;;;4996350;28;20406;-71
2022/09/10 14:21:54;;;;;;;1.47;0.90;;;;;;;;;;4996459;28;20417;-71
2022/09/10 14:24:32;;;;;;;2.47;1.00;;;;;;;;;;4996387;28;20438;-73
2022/09/10 14:27:14;;;;;;;4.93;1.50;;;;;;;;;;4996068;28;20481;-70
2022/09/10 14:29:41;;;;;;;1.53;1.00;;;;;;;;;;4996070;28;20433;-74
2022/09/10 14:32:18;;;;;;;0.80;0.80;;;;;;;;;;4978583;28;20518;-69
2022/09/10 14:34:46;;;;;;;2.40;1.20;;;;;;;;;;4996154;28;20410;-68
2022/09/10 14:37:32;;;;;;;2.80;1.10;;;;;;;;;;4996159;28;20413;-68
2022/09/10 14:40:16;;;;;;;1.10;1.00;;;;;;;;;;4995897;28;20414;-69
2022/09/10 14:42:43;;;;;;;2.13;0.87;;;;;;;;;;4995892;28;20963;-68
2022/09/10 14:45:28;;;;;;;0.83;0.80;;;;;;;;;;4995963;28;20772;-70
2022/09/10 14:47:54;;;;;;;3.20;1.33;;;;;;;;;;4995874;28;20967;-71
2022/09/10 14:50:33;;;;;;;1.27;0.97;;;;;;;;;;4978269;28;20431;-72
2022/09/10 14:52:59;;;;;;;1.93;1.30;;;;;;;;;;4995631;28;20645;-72
2022/09/10 14:55:26;;;;;;;3.10;1.13;;;;;;;;;;4995967;28;20452;-71
2022/09/10 14:57:56;;;;;;;3.37;1.20;;;;;;;;;;4995950;28;20424;-71